sensor_id;sensor_type;location;lat;lon;timestamp;pressure;altitude;pressure_sealevel;temperature;humidity
34073;BME280;20346;52.702;16.886;2023-02-01T00:00:15;99923.64;;;2.89;86.18
34073;BME280;20346;52.702;16.886;2023-02-01T00:03:01;99929.45;;;2.93;86.24
34073;BME280;20346;52.702;16.886;2023-02-01T00:05:54;99923.33;;;2.94;86.24
34073;BME280;20346;52.702;16.886;2023-02-01T00:08:41;99924.52;;;2.96;86.20
34073;BME280;20346;52.702;16.886;2023-02-01T00:11:27;99918.73;;;2.97;86.20
34073;BME280;20346;52.702;16.886;2023-02-01T00:14:13;99918.05;;;2.98;86.13
34073;BME280;20346;52.702;16.886;2023-02-01T00:16:59;99908.01;;;2.96;86.15
34073;BME280;20346;52.702;16.886;2023-02-01T00:19:45;99914.81;;;2.94;86.10
34073;BME280;20346;52.702;16.886;2023-02-01T00:22:31;99910.38;;;2.93;86.11
34073;BME280;20346;52.702;16.886;2023-02-01T00:25:17;99909.53;;;2.93;86.14
34073;BME280;20346;52.702;16.886;2023-02-01T00:28:04;99910.38;;;2.92;86.09
34073;BME280;20346;52.702;16.886;2023-02-01T00:30:57;99917.02;;;2.94;86.16
34073;BME280;20346;52.702;16.886;2023-02-01T00:33:43;99925.88;;;2.95;86.18
34073;BME280;20346;52.702;16.886;2023-02-01T00:43:20;99934.93;;;3.04;86.16
34073;BME280;20346;52.702;16.886;2023-02-01T00:46:06;99945.84;;;3.06;86.20
34073;BME280;20346;52.702;16.886;2023-02-01T00:48:52;99941.09;;;3.09;86.11
34073;BME280;20346;52.702;16.886;2023-02-01T00:51:38;99948.05;;;3.12;86.17
34073;BME280;20346;52.702;16.886;2023-02-01T00:54:24;99944.48;;;3.14;86.17
34073;BME280;20346;52.702;16.886;2023-02-01T00:57:10;99940.39;;;3.17;86.12
34073;BME280;20346;52.702;16.886;2023-02-01T00:59:56;99940.05;;;3.18;86.07
34073;BME280;20346;52.702;16.886;2023-02-01T01:02:42;99941.77;;;3.19;86.08
34073;BME280;20346;52.702;16.886;2023-02-01T01:05:28;99936.66;;;3.21;86.12
34073;BME280;20346;52.702;16.886;2023-02-01T01:08:15;99940.08;;;3.23;86.10
34073;BME280;20346;52.702;16.886;2023-02-01T01:11:08;99932.58;;;3.24;86.09
34073;BME280;20346;52.702;16.886;2023-02-01T01:13:55;99931.06;;;3.26;86.04
34073;BME280;20346;52.702;16.886;2023-02-01T01:16:42;99926.45;;;3.27;86.05
34073;BME280;20346;52.702;16.886;2023-02-01T01:19:28;99929.02;;;3.28;85.99
34073;BME280;20346;52.702;16.886;2023-02-01T01:22:19;99920.84;;;3.29;86.03
34073;BME280;20346;52.702;16.886;2023-02-01T01:25:06;99920.67;;;3.28;85.91
34073;BME280;20346;52.702;16.886;2023-02-01T01:27:52;99928.15;;;3.27;85.85
34073;BME280;20346;52.702;16.886;2023-02-01T01:30:38;99926.80;;;3.26;85.89
34073;BME280;20346;52.702;16.886;2023-02-01T01:33:24;99927.14;;;3.27;85.91
34073;BME280;20346;52.702;16.886;2023-02-01T01:36:11;99921.36;;;3.28;85.92
34073;BME280;20346;52.702;16.886;2023-02-01T01:38:57;99925.61;;;3.29;85.86
34073;BME280;20346;52.702;16.886;2023-02-01T01:41:43;99921.02;;;3.31;85.89
34073;BME280;20346;52.702;16.886;2023-02-01T01:47:38;99928.70;;;3.36;85.87
34073;BME280;20346;52.702;16.886;2023-02-01T01:50:28;99922.91;;;3.37;85.87
34073;BME280;20346;52.702;16.886;2023-02-01T01:53:16;99918.31;;;3.39;85.81
34073;BME280;20346;52.702;16.886;2023-02-01T01:56:03;99914.05;;;3.40;85.87
34073;BME280;20346;52.702;16.886;2023-02-01T01:58:50;99922.91;;;3.41;85.86
34073;BME280;20346;52.702;16.886;2023-02-01T02:01:38;99913.73;;;3.42;85.80
34073;BME280;20346;52.702;16.886;2023-02-01T02:04:24;99913.22;;;3.44;85.79
34073;BME280;20346;52.702;16.886;2023-02-01T02:07:11;99913.38;;;3.45;85.77
34073;BME280;20346;52.702;16.886;2023-02-01T02:10:00;99908.79;;;3.46;85.76
34073;BME280;20346;52.702;16.886;2023-02-01T02:12:46;99914.06;;;3.47;85.78
34073;BME280;20346;52.702;16.886;2023-02-01T02:15:33;99915.60;;;3.47;85.78
34073;BME280;20346;52.702;16.886;2023-02-01T02:18:27;99908.95;;;3.48;85.74
34073;BME280;20346;52.702;16.886;2023-02-01T02:36:55;99919.02;;;3.51;85.67
34073;BME280;20346;52.702;16.886;2023-02-01T02:43:16;99926.17;;;3.51;85.66
34073;BME280;20346;52.702;16.886;2023-02-01T02:46:27;99925.15;;;3.53;85.69
34073;BME280;20346;52.702;16.886;2023-02-01T02:52:22;99923.79;;;3.52;85.60
34073;BME280;20346;52.702;16.886;2023-02-01T02:55:27;99926.52;;;3.50;85.63
34073;BME280;20346;52.702;16.886;2023-02-01T02:58:14;99913.39;;;3.46;85.59
34073;BME280;20346;52.702;16.886;2023-02-01T03:01:20;99919.17;;;3.44;85.59
34073;BME280;20346;52.702;16.886;2023-02-01T03:04:25;99913.20;;;3.40;85.52
34073;BME280;20346;52.702;16.886;2023-02-01T03:07:15;99912.34;;;3.34;85.56
34073;BME280;20346;52.702;16.886;2023-02-01T03:13:18;99917.60;;;3.26;85.58
34073;BME280;20346;52.702;16.886;2023-02-01T03:16:18;99913.84;;;3.23;85.65
34073;BME280;20346;52.702;16.886;2023-02-01T03:19:17;99915.88;;;3.22;85.60
34073;BME280;20346;52.702;16.886;2023-02-01T03:22:08;99920.66;;;3.22;85.68
34073;BME280;20346;52.702;16.886;2023-02-01T03:28:12;99908.05;;;3.22;85.59
34073;BME280;20346;52.702;16.886;2023-02-01T03:31:01;99916.73;;;3.23;85.61
34073;BME280;20346;52.702;16.886;2023-02-01T03:33:48;99912.66;;;3.24;85.57
34073;BME280;20346;52.702;16.886;2023-02-01T03:39:25;99916.41;;;3.26;85.63
34073;BME280;20346;52.702;16.886;2023-02-01T03:42:19;99919.14;;;3.27;85.63
34073;BME280;20346;52.702;16.886;2023-02-01T03:45:27;99915.73;;;3.28;85.58
34073;BME280;20346;52.702;16.886;2023-02-01T03:48:15;99915.91;;;3.29;85.51
34073;BME280;20346;52.702;16.886;2023-02-01T03:51:03;99917.27;;;3.30;85.55
34073;BME280;20346;52.702;16.886;2023-02-01T03:53:51;99911.65;;;3.31;85.43
34073;BME280;20346;52.702;16.886;2023-02-01T03:56:39;99913.36;;;3.34;85.54
34073;BME280;20346;52.702;16.886;2023-02-01T03:59:29;99917.46;;;3.36;85.51
34073;BME280;20346;52.702;16.886;2023-02-01T04:02:16;99927.34;;;3.38;85.52
34073;BME280;20346;52.702;16.886;2023-02-01T04:05:02;99916.77;;;3.40;85.50
34073;BME280;20346;52.702;16.886;2023-02-01T04:07:48;99913.04;;;3.42;85.52
34073;BME280;20346;52.702;16.886;2023-02-01T04:10:34;99912.70;;;3.43;85.50
34073;BME280;20346;52.702;16.886;2023-02-01T04:13:20;99908.61;;;3.44;85.42
34073;BME280;20346;52.702;16.886;2023-02-01T04:16:06;99903.84;;;3.45;85.47
34073;BME280;20346;52.702;16.886;2023-02-01T04:18:52;99904.18;;;3.47;85.41
34073;BME280;20346;52.702;16.886;2023-02-01T04:21:38;99900.78;;;3.47;85.38
34073;BME280;20346;52.702;16.886;2023-02-01T04:24:24;99906.05;;;3.48;85.36
34073;BME280;20346;52.702;16.886;2023-02-01T04:27:10;99899.42;;;3.49;85.38
34073;BME280;20346;52.702;16.886;2023-02-01T04:29:56;99899.08;;;3.51;85.33
34073;BME280;20346;52.702;16.886;2023-02-01T04:32:42;99897.38;;;3.52;85.37
34073;BME280;20346;52.702;16.886;2023-02-01T04:35:28;99893.80;;;3.52;85.22
34073;BME280;20346;52.702;16.886;2023-02-01T04:38:14;99888.52;;;3.52;85.19
34073;BME280;20346;52.702;16.886;2023-02-01T04:41:00;99891.08;;;3.52;85.18
34073;BME280;20346;52.702;16.886;2023-02-01T04:43:47;99875.23;;;3.53;85.21
34073;BME280;20346;52.702;16.886;2023-02-01T04:46:33;99881.19;;;3.56;85.23
34073;BME280;20346;52.702;16.886;2023-02-01T04:49:19;99872.33;;;3.56;85.23
34073;BME280;20346;52.702;16.886;2023-02-01T04:52:07;99870.45;;;3.58;85.22
34073;BME280;20346;52.702;16.886;2023-02-01T04:54:53;99871.99;;;3.60;85.24
34073;BME280;20346;52.702;16.886;2023-02-01T04:57:43;99872.17;;;3.62;85.20
34073;BME280;20346;52.702;16.886;2023-02-01T05:00:29;99870.45;;;3.63;85.09
34073;BME280;20346;52.702;16.886;2023-02-01T05:03:15;99869.75;;;3.64;85.14
34073;BME280;20346;52.702;16.886;2023-02-01T05:06:01;99866.85;;;3.65;85.16
34073;BME280;20346;52.702;16.886;2023-02-01T05:08:50;99870.61;;;3.65;85.06
34073;BME280;20346;52.702;16.886;2023-02-01T05:11:36;99874.52;;;3.65;84.98
34073;BME280;20346;52.702;16.886;2023-02-01T05:14:41;99873.86;;;3.61;85.01
34073;BME280;20346;52.702;16.886;2023-02-01T05:17:27;99873.19;;;3.59;84.97
34073;BME280;20346;52.702;16.886;2023-02-01T05:20:13;99875.06;;;3.59;85.00
34073;BME280;20346;52.702;16.886;2023-02-01T05:22:59;99873.36;;;3.59;84.97
34073;BME280;20346;52.702;16.886;2023-02-01T05:25:45;99878.63;;;3.60;85.01
34073;BME280;20346;52.702;16.886;2023-02-01T05:28:31;99875.23;;;3.61;85.06
34073;BME280;20346;52.702;16.886;2023-02-01T05:31:17;99880.01;;;3.60;85.09
34073;BME280;20346;52.702;16.886;2023-02-01T05:34:04;99880.52;;;3.62;85.03
34073;BME280;20346;52.702;16.886;2023-02-01T05:36:50;99878.62;;;3.64;85.04
34073;BME280;20346;52.702;16.886;2023-02-01T05:39:36;99880.48;;;3.64;85.03
34073;BME280;20346;52.702;16.886;2023-02-01T05:42:23;99876.73;;;3.66;84.96
34073;BME280;20346;52.702;16.886;2023-02-01T05:45:09;99879.63;;;3.68;85.02
34073;BME280;20346;52.702;16.886;2023-02-01T05:47:55;99885.09;;;3.69;85.02
34073;BME280;20346;52.702;16.886;2023-02-01T05:50:41;99888.66;;;3.70;84.97
34073;BME280;20346;52.702;16.886;2023-02-01T05:53:27;99883.04;;;3.70;84.92
34073;BME280;20346;52.702;16.886;2023-02-01T05:56:13;99885.77;;;3.69;84.78
34073;BME280;20346;52.702;16.886;2023-02-01T05:58:59;99884.58;;;3.69;84.85
34073;BME280;20346;52.702;16.886;2023-02-01T06:01:45;99887.98;;;3.70;84.84
34073;BME280;20346;52.702;16.886;2023-02-01T06:04:31;99893.61;;;3.70;84.87
34073;BME280;20346;52.702;16.886;2023-02-01T06:07:17;99889.52;;;3.71;84.90
34073;BME280;20346;52.702;16.886;2023-02-01T06:10:03;99892.25;;;3.71;84.91
34073;BME280;20346;52.702;16.886;2023-02-01T06:12:50;99887.30;;;3.70;84.85
34073;BME280;20346;52.702;16.886;2023-02-01T06:15:36;99890.03;;;3.70;84.84
34073;BME280;20346;52.702;16.886;2023-02-01T06:18:23;99888.33;;;3.70;84.84
34073;BME280;20346;52.702;16.886;2023-02-01T06:21:09;99889.69;;;3.70;84.82
34073;BME280;20346;52.702;16.886;2023-02-01T06:23:55;99890.38;;;3.70;84.83
34073;BME280;20346;52.702;16.886;2023-02-01T06:26:43;99889.69;;;3.69;84.79
34073;BME280;20346;52.702;16.886;2023-02-01T06:29:29;99893.10;;;3.69;84.83
34073;BME280;20346;52.702;16.886;2023-02-01T06:32:15;99897.52;;;3.68;84.88
34073;BME280;20346;52.702;16.886;2023-02-01T06:35:03;99899.58;;;3.68;84.85
34073;BME280;20346;52.702;16.886;2023-02-01T06:37:49;99905.70;;;3.68;84.83
34073;BME280;20346;52.702;16.886;2023-02-01T06:40:35;99908.09;;;3.67;84.86
34073;BME280;20346;52.702;16.886;2023-02-01T06:43:22;99913.55;;;3.65;84.92
34073;BME280;20346;52.702;16.886;2023-02-01T06:46:10;99919.17;;;3.64;84.90
34073;BME280;20346;52.702;16.886;2023-02-01T06:48:57;99921.25;;;3.63;84.96
34073;BME280;20346;52.702;16.886;2023-02-01T06:51:43;99919.20;;;3.61;85.02
34073;BME280;20346;52.702;16.886;2023-02-01T06:54:29;99923.97;;;3.60;85.02
34073;BME280;20346;52.702;16.886;2023-02-01T06:57:18;99927.20;;;3.59;85.06
34073;BME280;20346;52.702;16.886;2023-02-01T07:00:04;99934.02;;;3.58;85.07
34073;BME280;20346;52.702;16.886;2023-02-01T07:02:50;99937.77;;;3.57;85.07
34073;BME280;20346;52.702;16.886;2023-02-01T07:05:37;99934.02;;;3.54;85.04
34073;BME280;20346;52.702;16.886;2023-02-01T07:08:23;99934.86;;;3.48;85.07
34073;BME280;20346;52.702;16.886;2023-02-01T07:11:10;99930.92;;;3.44;85.12
34073;BME280;20346;52.702;16.886;2023-02-01T07:13:57;99933.31;;;3.42;85.14
34073;BME280;20346;52.702;16.886;2023-02-01T07:16:43;99934.67;;;3.42;85.20
34073;BME280;20346;52.702;16.886;2023-02-01T07:19:29;99931.94;;;3.40;85.20
34073;BME280;20346;52.702;16.886;2023-02-01T07:22:18;99927.34;;;3.36;85.18
34073;BME280;20346;52.702;16.886;2023-02-01T07:25:04;99923.92;;;3.32;85.22
34073;BME280;20346;52.702;16.886;2023-02-01T07:27:51;99922.55;;;3.29;85.29
34073;BME280;20346;52.702;16.886;2023-02-01T07:30:37;99920.84;;;3.27;85.30
34073;BME280;20346;52.702;16.886;2023-02-01T07:33:23;99924.08;;;3.27;85.31
34073;BME280;20346;52.702;16.886;2023-02-01T07:36:11;99922.55;;;3.27;85.37
34073;BME280;20346;52.702;16.886;2023-02-01T07:38:58;99919.98;;;3.27;85.37
34073;BME280;20346;52.702;16.886;2023-02-01T07:41:45;99919.14;;;3.29;85.45
34073;BME280;20346;52.702;16.886;2023-02-01T07:44:31;99917.95;;;3.31;85.41
34073;BME280;20346;52.702;16.886;2023-02-01T07:47:17;99916.09;;;3.33;85.49
34073;BME280;20346;52.702;16.886;2023-02-01T07:50:04;99914.22;;;3.35;85.48
34073;BME280;20346;52.702;16.886;2023-02-01T07:52:50;99913.19;;;3.36;85.43
34073;BME280;20346;52.702;16.886;2023-02-01T07:55:39;99906.90;;;3.38;85.46
34073;BME280;20346;52.702;16.886;2023-02-01T07:58:26;99902.81;;;3.41;85.50
34073;BME280;20346;52.702;16.886;2023-02-01T08:01:22;99901.80;;;3.45;85.48
34073;BME280;20346;52.702;16.886;2023-02-01T08:04:13;99898.90;;;3.47;85.41
34073;BME280;20346;52.702;16.886;2023-02-01T08:06:59;99896.86;;;3.49;85.46
34073;BME280;20346;52.702;16.886;2023-02-01T08:09:45;99891.59;;;3.51;85.50
34073;BME280;20346;52.702;16.886;2023-02-01T08:12:31;99891.41;;;3.54;85.47
34073;BME280;20346;52.702;16.886;2023-02-01T08:15:18;99897.38;;;3.59;85.49
34073;BME280;20346;52.702;16.886;2023-02-01T08:18:04;99896.34;;;3.69;85.59
34073;BME280;20346;52.702;16.886;2023-02-01T08:20:50;99894.80;;;3.78;85.52
34073;BME280;20346;52.702;16.886;2023-02-01T08:23:38;99892.77;;;3.82;85.44
34073;BME280;20346;52.702;16.886;2023-02-01T08:26:25;99892.59;;;3.85;85.46
34073;BME280;20346;52.702;16.886;2023-02-01T08:29:11;99889.52;;;3.89;85.50
34073;BME280;20346;52.702;16.886;2023-02-01T08:31:59;99887.81;;;3.93;85.43
34073;BME280;20346;52.702;16.886;2023-02-01T08:34:45;99889.35;;;3.95;85.42
34073;BME280;20346;52.702;16.886;2023-02-01T08:37:31;99884.91;;;3.98;85.43
34073;BME280;20346;52.702;16.886;2023-02-01T08:40:17;99884.21;;;4.02;85.47
34073;BME280;20346;52.702;16.886;2023-02-01T08:43:04;99880.81;;;4.06;85.48
34073;BME280;20346;52.702;16.886;2023-02-01T08:45:53;99879.44;;;4.09;85.41
34073;BME280;20346;52.702;16.886;2023-02-01T08:48:39;99875.17;;;4.13;85.43
34073;BME280;20346;52.702;16.886;2023-02-01T08:51:26;99872.75;;;4.17;85.43
34073;BME280;20346;52.702;16.886;2023-02-01T08:54:12;99867.61;;;4.24;85.46
34073;BME280;20346;52.702;16.886;2023-02-01T08:56:58;99872.36;;;4.34;85.53
34073;BME280;20346;52.702;16.886;2023-02-01T08:59:44;99865.86;;;4.44;85.43
34073;BME280;20346;52.702;16.886;2023-02-01T09:02:30;99873.31;;;4.58;85.51
34073;BME280;20346;52.702;16.886;2023-02-01T09:05:16;99863.48;;;4.75;85.49
34073;BME280;20346;52.702;16.886;2023-02-01T09:08:05;99865.15;;;4.86;85.35
34073;BME280;20346;52.702;16.886;2023-02-01T09:10:51;99868.18;;;4.95;85.29
34073;BME280;20346;52.702;16.886;2023-02-01T09:13:37;99869.83;;;5.05;85.26
34073;BME280;20346;52.702;16.886;2023-02-01T09:16:23;99873.23;;;5.08;85.06
34073;BME280;20346;52.702;16.886;2023-02-01T09:19:09;99875.61;;;5.11;85.14
34073;BME280;20346;52.702;16.886;2023-02-01T09:21:55;99876.76;;;5.18;85.20
34073;BME280;20346;52.702;16.886;2023-02-01T09:24:42;99876.85;;;5.26;85.27
34073;BME280;20346;52.702;16.886;2023-02-01T09:27:28;99879.02;;;5.34;85.18
34073;BME280;20346;52.702;16.886;2023-02-01T09:30:14;99873.33;;;5.42;85.26
34073;BME280;20346;52.702;16.886;2023-02-01T09:33:00;99869.23;;;5.42;84.91
34073;BME280;20346;52.702;16.886;2023-02-01T09:35:46;99862.76;;;5.39;84.96
34073;BME280;20346;52.702;16.886;2023-02-01T09:38:32;99870.80;;;5.38;85.00
34073;BME280;20346;52.702;16.886;2023-02-01T09:44:38;99867.14;;;5.46;85.04
34073;BME280;20346;52.702;16.886;2023-02-01T09:47:27;99866.27;;;5.50;84.98
34073;BME280;20346;52.702;16.886;2023-02-01T09:50:17;99863.52;;;5.50;84.72
34073;BME280;20346;52.702;16.886;2023-02-01T09:53:19;99865.39;;;5.52;84.85
34073;BME280;20346;52.702;16.886;2023-02-01T09:56:23;99866.77;;;5.50;84.70
34073;BME280;20346;52.702;16.886;2023-02-01T09:59:26;99871.79;;;5.43;84.72
34073;BME280;20346;52.702;16.886;2023-02-01T10:02:19;99871.16;;;5.34;84.76
34073;BME280;20346;52.702;16.886;2023-02-01T10:05:17;99868.14;;;5.24;84.74
34073;BME280;20346;52.702;16.886;2023-02-01T10:14:13;99864.17;;;5.09;84.91
34073;BME280;20346;52.702;16.886;2023-02-01T10:17:20;99856.50;;;5.06;84.81
34073;BME280;20346;52.702;16.886;2023-02-01T10:26:17;99837.29;;;4.90;84.88
34073;BME280;20346;52.702;16.886;2023-02-01T10:29:04;99837.98;;;4.90;85.00
34073;BME280;20346;52.702;16.886;2023-02-01T10:31:56;99840.55;;;4.88;84.92
34073;BME280;20346;52.702;16.886;2023-02-01T10:34:44;99835.27;;;4.85;84.82
34073;BME280;20346;52.702;16.886;2023-02-01T10:37:33;99833.73;;;4.83;84.92
34073;BME280;20346;52.702;16.886;2023-02-01T10:40:20;99830.17;;;4.79;84.80
34073;BME280;20346;52.702;16.886;2023-02-01T10:43:07;99828.66;;;4.74;84.83
34073;BME280;20346;52.702;16.886;2023-02-01T10:45:55;99827.98;;;4.74;84.95
34073;BME280;20346;52.702;16.886;2023-02-01T10:48:42;99827.31;;;4.73;84.91
34073;BME280;20346;52.702;16.886;2023-02-01T10:51:38;99830.21;;;4.73;84.94
34073;BME280;20346;52.702;16.886;2023-02-01T10:54:35;99826.45;;;4.71;85.04
34073;BME280;20346;52.702;16.886;2023-02-01T10:57:24;99827.83;;;4.71;85.04
34073;BME280;20346;52.702;16.886;2023-02-01T11:00:21;99830.55;;;4.71;85.07
34073;BME280;20346;52.702;16.886;2023-02-01T11:06:21;99828.23;;;4.65;85.12
34073;BME280;20346;52.702;16.886;2023-02-01T11:11:56;99826.86;;;4.63;85.16
34073;BME280;20346;52.702;16.886;2023-02-01T11:14:43;99829.76;;;4.65;85.22
34073;BME280;20346;52.702;16.886;2023-02-01T11:17:34;99825.81;;;4.68;85.28
34073;BME280;20346;52.702;16.886;2023-02-01T11:20:33;99826.98;;;4.69;85.25
34073;BME280;20346;52.702;16.886;2023-02-01T11:23:24;99820.65;;;4.72;85.24
34073;BME280;20346;52.702;16.886;2023-02-01T11:26:15;99819.80;;;4.73;85.20
34073;BME280;20346;52.702;16.886;2023-02-01T11:29:10;99825.26;;;4.71;85.19
34073;BME280;20346;52.702;16.886;2023-02-01T11:31:57;99818.48;;;4.67;85.12
34073;BME280;20346;52.702;16.886;2023-02-01T11:34:45;99820.17;;;4.68;85.22
34073;BME280;20346;52.702;16.886;2023-02-01T11:37:35;99814.39;;;4.66;85.13
34073;BME280;20346;52.702;16.886;2023-02-01T11:46:02;99816.48;;;4.58;85.03
34073;BME280;20346;52.702;16.886;2023-02-01T11:48:49;99818.02;;;4.59;85.11
34073;BME280;20346;52.702;16.886;2023-02-01T11:51:50;99816.82;;;4.59;85.04
34073;BME280;20346;52.702;16.886;2023-02-01T11:55:01;99817.33;;;4.59;85.00
34073;BME280;20346;52.702;16.886;2023-02-01T12:00:55;99825.00;;;4.58;85.05
34073;BME280;20346;52.702;16.886;2023-02-01T12:06:50;99825.37;;;4.53;85.00
34073;BME280;20346;52.702;16.886;2023-02-01T12:27:31;99812.23;;;4.53;84.84
34073;BME280;20346;52.702;16.886;2023-02-01T12:43:03;99793.14;;;4.49;84.77
34073;BME280;20346;52.702;16.886;2023-02-01T12:45:53;99794.33;;;4.48;84.70
34073;BME280;20346;52.702;16.886;2023-02-01T12:51:31;99790.74;;;4.49;84.73
34073;BME280;20346;52.702;16.886;2023-02-01T12:54:21;99792.27;;;4.50;84.70
34073;BME280;20346;52.702;16.886;2023-02-01T12:57:20;99789.37;;;4.53;84.75
34073;BME280;20346;52.702;16.886;2023-02-01T13:06:17;99778.80;;;4.76;84.81
34073;BME280;20346;52.702;16.886;2023-02-01T13:09:19;99779.98;;;4.79;84.62
34073;BME280;20346;52.702;16.886;2023-02-01T13:12:15;99783.73;;;4.79;84.69
34073;BME280;20346;52.702;16.886;2023-02-01T13:15:05;99781.00;;;4.80;84.69
34073;BME280;20346;52.702;16.886;2023-02-01T13:17:57;99785.43;;;4.81;84.71
34073;BME280;20346;52.702;16.886;2023-02-01T13:23:31;99776.84;;;4.89;84.72
34073;BME280;20346;52.702;16.886;2023-02-01T13:26:20;99772.86;;;4.97;84.81
34073;BME280;20346;52.702;16.886;2023-02-01T13:29:06;99778.79;;;5.06;84.76
34073;BME280;20346;52.702;16.886;2023-02-01T13:44:11;99779.52;;;4.97;84.59
34073;BME280;20346;52.702;16.886;2023-02-01T13:47:03;99788.60;;;4.92;84.49
34073;BME280;20346;52.702;16.886;2023-02-01T13:49:57;99795.45;;;4.89;84.58
34073;BME280;20346;52.702;16.886;2023-02-01T13:52:44;99798.05;;;4.83;84.57
34073;BME280;20346;52.702;16.886;2023-02-01T13:55:35;99799.11;;;4.78;84.64
34073;BME280;20346;52.702;16.886;2023-02-01T13:58:32;99801.02;;;4.73;84.72
34073;BME280;20346;52.702;16.886;2023-02-01T14:04:50;99799.90;;;4.63;84.78
34073;BME280;20346;52.702;16.886;2023-02-01T14:07:36;99797.02;;;4.61;84.76
34073;BME280;20346;52.702;16.886;2023-02-01T14:13:31;99794.14;;;4.55;84.84
34073;BME280;20346;52.702;16.886;2023-02-01T14:16:18;99795.35;;;4.50;84.78
34073;BME280;20346;52.702;16.886;2023-02-01T14:19:07;99790.25;;;4.45;84.80
34073;BME280;20346;52.702;16.886;2023-02-01T14:21:55;99796.58;;;4.41;84.79
34073;BME280;20346;52.702;16.886;2023-02-01T14:24:50;99796.92;;;4.39;84.87
34073;BME280;20346;52.702;16.886;2023-02-01T14:27:39;99796.09;;;4.39;84.93
34073;BME280;20346;52.702;16.886;2023-02-01T14:30:25;99796.59;;;4.40;84.91
34073;BME280;20346;52.702;16.886;2023-02-01T14:33:17;99795.23;;;4.39;84.83
34073;BME280;20346;52.702;16.886;2023-02-01T14:36:06;99793.86;;;4.38;84.85
34073;BME280;20346;52.702;16.886;2023-02-01T14:38:53;99789.77;;;4.39;84.87
34073;BME280;20346;52.702;16.886;2023-02-01T14:41:39;99792.15;;;4.40;84.91
34073;BME280;20346;52.702;16.886;2023-02-01T14:44:28;99788.39;;;4.42;84.89
34073;BME280;20346;52.702;16.886;2023-02-01T14:53:22;99788.02;;;4.49;84.86
34073;BME280;20346;52.702;16.886;2023-02-01T14:56:15;99788.02;;;4.51;84.86
34073;BME280;20346;52.702;16.886;2023-02-01T14:59:07;99789.71;;;4.51;84.81
34073;BME280;20346;52.702;16.886;2023-02-01T15:01:56;99789.21;;;4.50;84.75
34073;BME280;20346;52.702;16.886;2023-02-01T15:04:44;99788.52;;;4.49;84.72
34073;BME280;20346;52.702;16.886;2023-02-01T15:07:30;99785.48;;;4.45;84.71
34073;BME280;20346;52.702;16.886;2023-02-01T15:10:17;99785.48;;;4.44;84.73
34073;BME280;20346;52.702;16.886;2023-02-01T15:13:04;99781.89;;;4.44;84.81
34073;BME280;20346;52.702;16.886;2023-02-01T15:16:01;99783.09;;;4.44;84.82
34073;BME280;20346;52.702;16.886;2023-02-01T15:18:47;99785.98;;;4.45;84.85
34073;BME280;20346;52.702;16.886;2023-02-01T15:21:41;99785.47;;;4.45;84.86
34073;BME280;20346;52.702;16.886;2023-02-01T15:24:29;99784.27;;;4.46;84.82
34073;BME280;20346;52.702;16.886;2023-02-01T15:27:15;99787.86;;;4.45;84.81
34073;BME280;20346;52.702;16.886;2023-02-01T15:30:35;99789.57;;;4.45;84.73
34073;BME280;20346;52.702;16.886;2023-02-01T15:36:21;99787.87;;;4.43;84.75
34073;BME280;20346;52.702;16.886;2023-02-01T15:42:21;99786.02;;;4.38;84.63
34073;BME280;20346;52.702;16.886;2023-02-01T15:45:17;99796.43;;;4.37;84.72
34073;BME280;20346;52.702;16.886;2023-02-01T15:48:19;99816.56;;;4.36;84.72
34073;BME280;20346;52.702;16.886;2023-02-01T15:51:11;99818.96;;;4.34;84.74
34073;BME280;20346;52.702;16.886;2023-02-01T15:53:59;99818.79;;;4.35;84.76
34073;BME280;20346;52.702;16.886;2023-02-01T15:56:50;99820.66;;;4.35;84.73
34073;BME280;20346;52.702;16.886;2023-02-01T15:59:41;99818.62;;;4.36;84.78
34073;BME280;20346;52.702;16.886;2023-02-01T16:02:36;99815.36;;;4.37;84.81
34073;BME280;20346;52.702;16.886;2023-02-01T16:08:21;99794.20;;;4.38;84.67
34073;BME280;20346;52.702;16.886;2023-02-01T16:13:54;99785.01;;;4.36;84.63
34073;BME280;20346;52.702;16.886;2023-02-01T16:16:41;99788.92;;;4.36;84.71
34073;BME280;20346;52.702;16.886;2023-02-01T16:19:28;99804.62;;;4.36;84.67
34073;BME280;20346;52.702;16.886;2023-02-01T16:22:15;99812.30;;;4.34;84.65
34073;BME280;20346;52.702;16.886;2023-02-01T16:25:01;99814.20;;;4.31;84.54
34073;BME280;20346;52.702;16.886;2023-02-01T16:27:47;99829.05;;;4.26;84.58
34073;BME280;20346;52.702;16.886;2023-02-01T16:30:34;99834.36;;;4.20;84.62
34073;BME280;20346;52.702;16.886;2023-02-01T16:33:20;99834.73;;;4.14;84.64
34073;BME280;20346;52.702;16.886;2023-02-01T16:36:10;99828.61;;;4.09;84.55
34073;BME280;20346;52.702;16.886;2023-02-01T16:38:57;99822.83;;;4.04;84.67
34073;BME280;20346;52.702;16.886;2023-02-01T16:41:43;99815.33;;;4.02;84.74
34073;BME280;20346;52.702;16.886;2023-02-01T16:44:30;99811.23;;;3.99;84.77
34073;BME280;20346;52.702;16.886;2023-02-01T16:47:17;99802.73;;;3.96;84.74
34073;BME280;20346;52.702;16.886;2023-02-01T16:50:04;99797.62;;;3.93;84.79
34073;BME280;20346;52.702;16.886;2023-02-01T16:53:01;99793.53;;;3.89;84.79
34073;BME280;20346;52.702;16.886;2023-02-01T16:55:47;99791.48;;;3.89;84.80
34073;BME280;20346;52.702;16.886;2023-02-01T16:58:33;99790.80;;;3.87;84.79
34073;BME280;20346;52.702;16.886;2023-02-01T17:01:20;99790.30;;;3.82;84.72
34073;BME280;20346;52.702;16.886;2023-02-01T17:04:07;99790.14;;;3.78;84.75
34073;BME280;20346;52.702;16.886;2023-02-01T17:06:53;99783.67;;;3.73;84.63
34073;BME280;20346;52.702;16.886;2023-02-01T17:09:39;99781.30;;;3.65;84.68
34073;BME280;20346;52.702;16.886;2023-02-01T17:12:29;99779.11;;;3.63;84.76
34073;BME280;20346;52.702;16.886;2023-02-01T17:15:16;99785.09;;;3.63;84.80
34073;BME280;20346;52.702;16.886;2023-02-01T17:18:02;99783.89;;;3.61;84.78
34073;BME280;20346;52.702;16.886;2023-02-01T17:20:49;99783.55;;;3.60;84.94
34073;BME280;20346;52.702;16.886;2023-02-01T17:23:37;99777.42;;;3.60;84.92
34073;BME280;20346;52.702;16.886;2023-02-01T17:26:23;99777.07;;;3.62;84.96